Barrow, AK

6:50 PM AKDT on October 21, 2014 (GMT -0800)
CRN BARROW OBSERVATORY BARROW 4 ENE AK US | Change Station
CLOSE
Current Station
Personal Weather Station
Location: Barrow, AK
Elevation: 15 ft
Nearby Weather Stations

Elev 15 ft 71.32 °N, 156.61 °W | Updated 50 minutes ago

Blowing Snow
Blowing Snow
18 °F
Feels Like 1 °F
N
22
Wind Variable Wind from North
Gusts 27.0 mph

Today
High -- | Low -- °F
--% Chance of Precip.
Yesterday
High -- | Low -- °F
Precip. -- in
10:16 AM 6:02 PM
Waning Crescent, 3% visible
Pressure 30.05 in
Visibility 1.5 miles
Clouds Overcast 1300 ft
Windchill 1 °F
Dew Point 15 °F
Humidity 88%
Rainfall -999.00 in
Snow Depth Not available.
UV 0 out of 12
Pollen Not available.
Air Quality Not available.
Flu Activity Sporadic
SPECI PABR 220219Z 05021KT 1 1/2SM BLSN OVC013 M08/M09 A3005 RMK AO2 PK WND 06027/0216 SNE13 P0000 T10831094

More Conditions Fewer Conditions

Pressure 30.05 in
Visibility 1.5 miles
Clouds Overcast 1300 ft
Windchill 1 °F
Dew Point 15 °F
Humidity 88%
Rainfall -999.00 in
Snow Depth Not available.
UV 0 out of 12
Pollen Not available.
Air Quality Not available.
Flu Activity Sporadic
SPECI PABR 220219Z 05021KT 1 1/2SM BLSN OVC013 M08/M09 A3005 RMK AO2 PK WND 06027/0216 SNE13 P0000 T10831094

More Conditions Fewer Conditions

10-Day Weather Forecast

Almanac

Astronomy

Oct. 21, 2014 Rise Set
Actual Time 10:16 AM AKDT 6:02 PM AKDT
Civil Twilight 9:04 AM AKDT 7:14 PM AKDT
Nautical Twilight 7:48 AM AKDT 8:30 PM AKDT
Astronomical Twilight 6:31 AM AKDT 9:46 PM AKDT
Moon 6:58 AM AKDT (10/21) 6:01 PM AKDT (10/21)
Length of Visible Light 10h 09m
Length of Day
7h 45m
Tomorrow will be 10m 17s shorter.
Waning Crescent, 3% of the Moon is Illuminated
Today
Waning Crescent
Oct 23
New
Oct 30
First Quarter
Nov 6
Full
Nov 14
Last Quarter

Today's Extremes

State Highs State Lows

Community

WunderPhotos

Upload Photos

1,763,862 photos uploaded!

Nearby

Snow Depth

Station Depth Elevation
Imnaviat Creek 21 in 3050 ft
Atigun Pass 12 in 4800 ft
Coldfoot 5 in 1040 ft
Gobblers Knob 1 in 2030 ft
Fort Yukon 3 in 430 ft

Earthquake Activity

City Distance Mag. Time & Date
No recent earthquake activity has been reported nearby.
Minimum magnitude displayed is 2.5.

Coastal Water Temperatures

Place Temperature
No Stations Reporting

Nearby Weather Stations